Time;durP1;ratioP1;P1;durP2;ratioP2;P2;SDS_P1;SDS_P2;PMS_P1;PMS_P2;Temp;Humidity;BMP_temperature;BMP_pressure;BME280_temperature;BME280_humidity;BME280_pressure;Samples;Min_cycle;Max_cycle;Signal;HPM_P1;HPM_P2
2021/10/26 00:01:44;;;;;;;;;;;;;;;11.45;100.00;101689.44;4880950;29;20010;-46
2021/10/26 00:04:10;;;;;;;;;;;;;;;11.42;100.00;101687.84;4878753;29;19938;-45
2021/10/26 00:06:38;;;;;;;;;;;;;;;11.41;100.00;101680.88;4880008;29;19928;-48
2021/10/26 00:09:05;;;;;;;;;;;;;;;11.37;100.00;101684.63;4879473;29;19935;-51
2021/10/26 00:11:32;;;;;;;;;;;;;;;11.40;100.00;101680.94;4878228;29;19963;-55
2021/10/26 00:13:59;;;;;;;;;;;;;;;11.41;100.00;101691.44;4877606;29;20319;-56
2021/10/26 00:16:26;;;;;;;;;;;;;;;11.43;100.00;101686.06;4877999;29;19928;-55
2021/10/26 00:18:53;;;;;;;;;;;;;;;11.55;100.00;101684.50;4880017;29;19935;-54
2021/10/26 00:21:19;;;;;;;;;;;;;;;11.50;100.00;101685.63;4879507;29;19980;-55
2021/10/26 00:23:46;;;;;;;;;;;;;;;11.48;100.00;101682.25;4883194;29;19928;-47
2021/10/26 00:26:13;;;;;;;;;;;;;;;11.51;100.00;101681.22;4881849;29;19928;-45
2021/10/26 00:28:39;;;;;;;;;;;;;;;11.50;100.00;101687.41;4883614;29;19935;-49
2021/10/26 00:31:06;;;;;;;;;;;;;;;11.48;100.00;101689.31;4879192;29;19932;-45
2021/10/26 00:33:33;;;;;;;;;;;;;;;11.43;100.00;101689.53;4876173;29;19927;-47
2021/10/26 00:35:59;;;;;;;;;;;;;;;11.44;100.00;101695.69;4863903;29;19980;-50
2021/10/26 00:38:26;;;;;;;;;;;;;;;11.50;100.00;101695.31;4879613;29;19928;-47
2021/10/26 00:40:53;;;;;;;;;;;;;;;11.48;100.00;101700.69;4878605;29;20372;-47
2021/10/26 00:43:20;;;;;;;;;;;;;;;11.45;100.00;101700.84;4873966;29;19954;-46
2021/10/26 00:45:47;;;;;;;;;;;;;;;11.45;100.00;101702.63;4876272;29;19975;-50
2021/10/26 00:48:14;;;;;;;;;;;;;;;11.39;100.00;101701.19;4886309;29;20423;-47
2021/10/26 00:50:40;;;;;;;;;;;;;;;11.42;100.00;101694.91;4878170;29;19959;-54
2021/10/26 00:53:07;;;;;;;;;;;;;;;11.46;100.00;101704.31;4876773;29;19938;-56
2021/10/26 00:55:34;;;;;;;;;;;;;;;11.45;100.00;101710.53;4883945;29;20570;-55
2021/10/26 00:58:01;;;;;;;;;;;;;;;11.42;100.00;101711.53;4885792;29;19931;-53
2021/10/26 01:00:28;;;;;;;;;;;;;;;11.43;100.00;101707.97;4879829;29;19931;-47
2021/10/26 01:02:55;;;;;;;;;;;;;;;11.44;100.00;101708.84;4886080;29;19932;-56
2021/10/26 01:05:21;;;;;;;;;;;;;;;11.39;100.00;101709.09;4878773;29;19936;-51
2021/10/26 01:07:48;;;;;;;;;;;;;;;11.44;100.00;101706.22;4876590;29;20415;-52
2021/10/26 01:10:15;;;;;;;;;;;;;;;11.42;100.00;101715.97;4874461;29;19943;-51
2021/10/26 01:12:41;;;;;;;;;;;;;;;11.43;100.00;101713.25;4878975;29;19928;-55
2021/10/26 01:15:09;;;;;;;;;;;;;;;11.41;100.00;101716.91;4878876;29;19932;-55
2021/10/26 01:17:36;;;;;;;;;;;;;;;11.42;100.00;101721.22;4877828;29;20022;-53
2021/10/26 01:20:03;;;;;;;;;;;;;;;11.40;100.00;101707.28;4877745;29;20412;-50
2021/10/26 01:22:30;;;;;;;;;;;;;;;11.43;100.00;101720.31;4877932;29;19935;-55
2021/10/26 01:24:58;;;;;;;;;;;;;;;11.41;100.00;101717.75;4879306;29;19934;-55
2021/10/26 01:27:25;;;;;;;;;;;;;;;11.46;100.00;101709.59;4880391;29;20284;-54
2021/10/26 01:29:51;;;;;;;;;;;;;;;11.47;100.00;101714.78;4875074;29;19928;-51
2021/10/26 01:32:18;;;;;;;;;;;;;;;11.44;100.00;101719.38;4860924;29;19979;-54
2021/10/26 01:34:46;;;;;;;;;;;;;;;11.47;100.00;101711.31;4876187;29;19932;-54
2021/10/26 01:37:12;;;;;;;;;;;;;;;11.42;100.00;101710.69;4876387;29;19928;-55
2021/10/26 01:39:40;;;;;;;;;;;;;;;11.40;100.00;101715.19;4860279;29;19935;-45
2021/10/26 01:42:07;;;;;;;;;;;;;;;11.40;100.00;101718.69;4863072;29;19928;-54
2021/10/26 01:44:34;;;;;;;;;;;;;;;11.42;100.00;101723.88;4879576;29;19931;-53
2021/10/26 01:47:00;;;;;;;;;;;;;;;11.40;100.00;101720.44;4879602;29;19970;-45
2021/10/26 01:49:27;;;;;;;;;;;;;;;11.37;100.00;101723.25;4879285;29;19927;-54
2021/10/26 01:51:54;;;;;;;;;;;;;;;11.36;100.00;101725.06;4879180;29;19928;-52
2021/10/26 01:54:20;;;;;;;;;;;;;;;11.37;100.00;101728.53;4879419;29;19928;-56
2021/10/26 01:56:47;;;;;;;;;;;;;;;11.42;100.00;101724.72;4861656;29;20272;-53
2021/10/26 01:59:14;;;;;;;;;;;;;;;11.45;100.00;101729.84;4859788;29;19931;-54
2021/10/26 02:01:40;;;;;;;;;;;;;;;11.42;100.00;101734.41;4875388;29;20023;-43
2021/10/26 02:04:08;;;;;;;;;;;;;;;11.42;100.00;101731.78;4876844;29;19928;-46
2021/10/26 02:06:34;;;;;;;;;;;;;;;11.39;100.00;101724.88;4878460;29;19932;-44
2021/10/26 02:09:01;;;;;;;;;;;;;;;11.45;100.00;101723.69;4876453;29;19934;-56
2021/10/26 02:11:28;;;;;;;;;;;;;;;11.46;100.00;101718.34;4877027;29;19938;-55
2021/10/26 02:13:54;;;;;;;;;;;;;;;11.42;100.00;101721.22;4877087;29;19927;-53
2021/10/26 02:16:21;;;;;;;;;;;;;;;11.45;100.00;101713.16;4874791;29;19999;-54
2021/10/26 02:18:48;;;;;;;;;;;;;;;11.40;100.00;101713.41;4862156;29;19932;-55
2021/10/26 02:21:19;;;;;;;;;;;;;;;11.35;100.00;101723.34;4879168;29;19938;-47
2021/10/26 02:23:46;;;;;;;;;;;;;;;11.32;100.00;101718.25;4877591;29;19932;-47
2021/10/26 02:26:12;;;;;;;;;;;;;;;11.26;100.00;101714.19;4876253;29;20024;-46
2021/10/26 02:28:39;;;;;;;;;;;;;;;11.29;100.00;101723.69;4874443;29;19940;-45
2021/10/26 02:31:05;;;;;;;;;;;;;;;11.32;100.00;101724.38;4875300;29;19931;-45
2021/10/26 02:33:32;;;;;;;;;;;;;;;11.31;100.00;101725.28;4876194;29;19935;-54
2021/10/26 02:35:59;;;;;;;;;;;;;;;11.30;100.00;101726.25;4876810;29;20037;-51
2021/10/26 02:38:25;;;;;;;;;;;;;;;11.29;100.00;101735.06;4879183;29;19935;-52
2021/10/26 02:40:52;;;;;;;;;;;;;;;11.30;100.00;101734.16;4860871;29;19932;-55
2021/10/26 02:43:19;;;;;;;;;;;;;;;11.36;100.00;101740.00;4874793;29;19936;-55
2021/10/26 02:45:46;;;;;;;;;;;;;;;11.38;100.00;101735.50;4875093;29;19976;-51
2021/10/26 02:48:12;;;;;;;;;;;;;;;11.32;100.00;101740.16;4878144;29;19934;-50
2021/10/26 02:50:39;;;;;;;;;;;;;;;11.33;100.00;101738.41;4878758;29;19935;-54
2021/10/26 02:53:05;;;;;;;;;;;;;;;11.28;100.00;101733.38;4877652;29;20031;-54
2021/10/26 02:55:32;;;;;;;;;;;;;;;11.29;100.00;101735.06;4875535;29;19936;-54
2021/10/26 02:57:59;;;;;;;;;;;;;;;11.28;100.00;101728.09;4877785;29;20387;-52
2021/10/26 03:00:25;;;;;;;;;;;;;;;11.27;100.00;101726.38;4875640;29;19928;-45
2021/10/26 03:02:52;;;;;;;;;;;;;;;11.34;100.00;101726.91;4876046;29;19955;-45
2021/10/26 03:05:19;;;;;;;;;;;;;;;11.33;100.00;101726.06;4878708;29;19956;-45
2021/10/26 03:07:46;;;;;;;;;;;;;;;11.30;100.00;101736.78;4861688;29;19980;-43
2021/10/26 03:10:13;;;;;;;;;;;;;;;11.28;100.00;101732.53;4878817;29;19983;-44
2021/10/26 03:12:40;;;;;;;;;;;;;;;11.27;100.00;101731.66;4862096;29;20416;-46
2021/10/26 03:15:07;;;;;;;;;;;;;;;11.26;100.00;101729.09;4878409;29;19979;-46
2021/10/26 03:17:34;;;;;;;;;;;;;;;11.25;100.00;101732.69;4874792;29;19982;-50
2021/10/26 03:20:01;;;;;;;;;;;;;;;11.22;100.00;101738.97;4875579;29;19976;-44
2021/10/26 03:22:27;;;;;;;;;;;;;;;11.23;100.00;101734.56;4875626;29;19935;-49
2021/10/26 03:24:55;;;;;;;;;;;;;;;11.14;100.00;101739.38;4875691;29;19928;-47
2021/10/26 03:27:22;;;;;;;;;;;;;;;11.18;100.00;101739.19;4875061;29;19980;-48
2021/10/26 03:29:50;;;;;;;;;;;;;;;11.14;100.00;101744.63;4860299;29;20088;-47
2021/10/26 03:32:17;;;;;;;;;;;;;;;11.16;100.00;101749.81;4861843;29;20371;-51
2021/10/26 03:34:44;;;;;;;;;;;;;;;11.20;100.00;101743.47;4880287;29;19927;-49
2021/10/26 03:37:10;;;;;;;;;;;;;;;11.24;100.00;101744.16;4881700;29;20376;-48
2021/10/26 03:39:37;;;;;;;;;;;;;;;11.15;100.00;101743.72;4863133;29;20344;-48
2021/10/26 03:42:04;;;;;;;;;;;;;;;11.13;100.00;101744.72;4878922;29;19935;-45
2021/10/26 03:44:31;;;;;;;;;;;;;;;11.18;100.00;101741.84;4880842;29;19943;-49
2021/10/26 03:46:57;;;;;;;;;;;;;;;11.13;100.00;101745.56;4878433;29;20391;-45
2021/10/26 03:49:24;;;;;;;;;;;;;;;11.11;100.00;101743.94;4879645;29;20344;-53
2021/10/26 03:51:51;;;;;;;;;;;;;;;11.12;100.00;101750.91;4865002;29;19988;-52
2021/10/26 03:54:18;;;;;;;;;;;;;;;11.13;100.00;101758.72;4881401;29;19928;-45
2021/10/26 03:56:44;;;;;;;;;;;;;;;11.15;100.00;101745.47;4864717;29;19928;-45
2021/10/26 03:59:11;;;;;;;;;;;;;;;11.11;100.00;101746.56;4864762;29;19928;-53
2021/10/26 04:01:38;;;;;;;;;;;;;;;11.16;100.00;101755.09;4881029;29;19928;-54
2021/10/26 04:04:05;;;;;;;;;;;;;;;11.10;100.00;101753.63;4864575;29;19968;-54
2021/10/26 04:06:33;;;;;;;;;;;;;;;11.13;100.00;101750.00;4881175;29;19928;-54
2021/10/26 04:09:10;;;;;;;;;;;;;;;11.14;100.00;101756.97;4881350;29;19927;-47
2021/10/26 04:11:52;;;;;;;;;;;;;;;11.08;100.00;101752.00;4881115;29;19931;-54
2021/10/26 04:14:18;;;;;;;;;;;;;;;11.07;100.00;101756.44;4881215;29;19928;-47
2021/10/26 04:16:45;;;;;;;;;;;;;;;11.07;100.00;101766.97;4880945;29;19935;-56
2021/10/26 04:19:12;;;;;;;;;;;;;;;11.07;100.00;101760.84;4881142;29;19983;-54
2021/10/26 04:21:38;;;;;;;;;;;;;;;11.11;100.00;101757.97;4878691;29;20337;-55
2021/10/26 04:24:05;;;;;;;;;;;;;;;11.10;100.00;101766.81;4878032;29;19932;-46
2021/10/26 04:26:32;;;;;;;;;;;;;;;11.10;100.00;101764.16;4880942;29;19963;-55
2021/10/26 04:28:58;;;;;;;;;;;;;;;11.06;100.00;101764.41;4864240;29;19985;-44
2021/10/26 04:31:25;;;;;;;;;;;;;;;11.04;100.00;101764.47;4880566;29;19932;-56
2021/10/26 04:33:52;;;;;;;;;;;;;;;10.98;100.00;101767.44;4880777;29;20396;-46
2021/10/26 04:36:18;;;;;;;;;;;;;;;10.99;100.00;101761.25;4880727;29;20340;-48
2021/10/26 04:38:45;;;;;;;;;;;;;;;11.04;100.00;101772.38;4880431;29;20349;-55
2021/10/26 04:41:12;;;;;;;;;;;;;;;10.98;100.00;101783.22;4878388;29;19935;-54
2021/10/26 04:43:38;;;;;;;;;;;;;;;11.01;100.00;101780.44;4876679;29;20007;-55
2021/10/26 04:46:06;;;;;;;;;;;;;;;11.04;100.00;101782.06;4876929;29;20399;-47
2021/10/26 04:48:32;;;;;;;;;;;;;;;11.02;100.00;101782.16;4862850;29;19928;-54
2021/10/26 04:50:59;;;;;;;;;;;;;;;10.97;100.00;101785.00;4879350;29;20388;-54
2021/10/26 04:53:25;;;;;;;;;;;;;;;10.98;100.00;101791.97;4879631;29;19927;-56
2021/10/26 04:55:52;;;;;;;;;;;;;;;10.98;100.00;101789.34;4861215;29;19975;-54
2021/10/26 04:58:19;;;;;;;;;;;;;;;10.98;100.00;101783.22;4878363;29;20000;-55
2021/10/26 05:00:45;;;;;;;;;;;;;;;10.96;100.00;101780.69;4880392;29;19928;-49
2021/10/26 05:03:12;;;;;;;;;;;;;;;11.02;100.00;101774.25;4863695;29;20344;-47
2021/10/26 05:05:39;;;;;;;;;;;;;;;10.98;100.00;101773.53;4877859;29;19944;-54
2021/10/26 05:08:05;;;;;;;;;;;;;;;10.98;100.00;101778.81;4877472;29;19939;-55
2021/10/26 05:10:32;;;;;;;;;;;;;;;10.98;100.00;101781.44;4876965;29;19932;-54
2021/10/26 05:12:59;;;;;;;;;;;;;;;10.93;100.00;101786.09;4877203;29;19927;-46
2021/10/26 05:15:25;;;;;;;;;;;;;;;10.94;100.00;101785.16;4880232;29;20625;-47
2021/10/26 05:17:52;;;;;;;;;;;;;;;10.94;100.00;101790.44;4879889;29;19975;-46
2021/10/26 05:20:21;;;;;;;;;;;;;;;10.87;100.00;101791.69;4877500;29;19956;-47
2021/10/26 05:22:51;;;;;;;;;;;;;;;10.88;100.00;101787.25;4877392;29;19931;-46
2021/10/26 05:25:18;;;;;;;;;;;;;;;10.88;100.00;101798.66;4876907;29;19975;-45
2021/10/26 05:27:45;;;;;;;;;;;;;;;10.87;100.00;101802.22;4860752;29;19927;-47
2021/10/26 05:30:13;;;;;;;;;;;;;;;10.83;100.00;101806.75;4877935;29;19955;-45
2021/10/26 05:32:39;;;;;;;;;;;;;;;10.84;100.00;101810.28;4879533;29;19954;-46
2021/10/26 05:35:06;;;;;;;;;;;;;;;10.84;100.00;101812.91;4862164;29;20443;-49
2021/10/26 05:37:33;;;;;;;;;;;;;;;10.78;100.00;101808.81;4877040;29;19927;-45
2021/10/26 05:40:02;;;;;;;;;;;;;;;10.81;100.00;101815.66;4878329;29;20387;-47
2021/10/26 05:42:29;;;;;;;;;;;;;;;10.83;100.00;101817.28;4877383;29;19931;-48
2021/10/26 05:44:56;;;;;;;;;;;;;;;10.84;100.00;101812.91;4875167;29;19928;-53
2021/10/26 05:47:23;;;;;;;;;;;;;;;10.86;100.00;101821.56;4875931;29;19939;-54
2021/10/26 05:49:49;;;;;;;;;;;;;;;10.85;100.00;101827.72;4863095;29;19966;-53
2021/10/26 05:52:16;;;;;;;;;;;;;;;10.82;100.00;101831.41;4877972;29;19956;-53
2021/10/26 05:54:43;;;;;;;;;;;;;;;10.80;100.00;101833.25;4879368;29;20342;-55
2021/10/26 05:57:10;;;;;;;;;;;;;;;10.83;100.00;101837.50;4879270;29;19963;-54
2021/10/26 05:59:36;;;;;;;;;;;;;;;10.81;100.00;101836.72;4876103;29;19963;-55
2021/10/26 06:02:03;;;;;;;;;;;;;;;10.81;100.00;101844.59;4876479;29;19932;-45
2021/10/26 06:04:30;;;;;;;;;;;;;;;10.78;100.00;101845.66;4879021;29;19934;-48
2021/10/26 06:06:56;;;;;;;;;;;;;;;10.77;100.00;101858.84;4878090;29;19984;-48
2021/10/26 06:09:24;;;;;;;;;;;;;;;10.78;100.00;101856.16;4876416;29;19934;-45
2021/10/26 06:11:51;;;;;;;;;;;;;;;10.75;100.00;101856.28;4861878;29;20279;-54
2021/10/26 06:14:18;;;;;;;;;;;;;;;10.77;100.00;101854.47;4859811;29;19956;-55
2021/10/26 06:16:45;;;;;;;;;;;;;;;10.81;100.00;101855.13;4875068;29;20307;-54
2021/10/26 06:19:11;;;;;;;;;;;;;;;10.76;100.00;101862.44;4876553;29;19936;-47
2021/10/26 06:21:38;;;;;;;;;;;;;;;10.73;100.00;101863.44;4876630;29;19939;-55
2021/10/26 06:24:05;;;;;;;;;;;;;;;10.74;100.00;101866.91;4876563;29;19928;-55
2021/10/26 06:26:32;;;;;;;;;;;;;;;10.73;100.00;101876.59;4876202;29;19940;-56
2021/10/26 06:28:59;;;;;;;;;;;;;;;10.69;100.00;101869.78;4875429;29;19932;-54
2021/10/26 06:31:27;;;;;;;;;;;;;;;10.75;100.00;101866.81;4875134;29;20448;-47
2021/10/26 06:33:54;;;;;;;;;;;;;;;10.76;100.00;101860.63;4876607;29;19932;-45
2021/10/26 06:36:21;;;;;;;;;;;;;;;10.74;100.00;101859.00;4876934;29;19980;-44
2021/10/26 06:38:49;;;;;;;;;;;;;;;10.73;100.00;101857.28;4862261;29;20328;-45
2021/10/26 06:41:16;;;;;;;;;;;;;;;10.78;100.00;101863.19;4878766;29;19927;-43
2021/10/26 06:43:42;;;;;;;;;;;;;;;10.72;100.00;101863.50;4878688;29;19999;-44
2021/10/26 06:46:09;;;;;;;;;;;;;;;10.75;100.00;101865.97;4861899;29;19928;-53
2021/10/26 06:48:36;;;;;;;;;;;;;;;10.75;100.00;101874.72;4878689;29;19932;-55
2021/10/26 06:51:02;;;;;;;;;;;;;;;10.73;100.00;101878.34;4878628;29;19932;-44
2021/10/26 06:53:29;;;;;;;;;;;;;;;10.73;100.00;101879.22;4876497;29;19928;-44
2021/10/26 06:56:03;;;;;;;;;;;;;;;10.76;100.00;101884.31;4876076;29;19974;-44
2021/10/26 06:58:30;;;;;;;;;;;;;;;10.80;100.00;101885.88;4875608;29;19932;-43
2021/10/26 07:00:56;;;;;;;;;;;;;;;10.78;100.00;101881.59;4861572;29;19935;-54
2021/10/26 07:03:23;;;;;;;;;;;;;;;10.79;100.00;101891.22;4859060;29;19943;-43
2021/10/26 07:05:50;;;;;;;;;;;;;;;10.78;100.00;101903.53;4864694;29;19928;-44
2021/10/26 07:08:16;;;;;;;;;;;;;;;10.80;100.00;101900.81;4879996;29;19988;-44
2021/10/26 07:10:43;;;;;;;;;;;;;;;10.75;100.00;101902.81;4879427;29;19928;-44
2021/10/26 07:13:10;;;;;;;;;;;;;;;10.82;100.00;101898.94;4881684;29;19935;-47
2021/10/26 07:15:37;;;;;;;;;;;;;;;10.82;100.00;101906.84;4878598;29;19928;-48
2021/10/26 07:18:03;;;;;;;;;;;;;;;10.76;100.00;101915.91;4880838;29;19928;-54
2021/10/26 07:20:30;;;;;;;;;;;;;;;10.80;100.00;101914.81;4882102;29;19952;-46
2021/10/26 07:22:57;;;;;;;;;;;;;;;10.88;100.00;101918.84;4865213;29;19932;-44
2021/10/26 07:25:24;;;;;;;;;;;;;;;10.83;100.00;101925.19;4881896;29;19931;-55
2021/10/26 07:27:58;;;;;;;;;;;;;;;10.83;100.00;101926.97;4865461;29;19939;-50
2021/10/26 07:30:28;;;;;;;;;;;;;;;10.87;100.00;101932.94;4881162;29;19928;-52
2021/10/26 07:32:56;;;;;;;;;;;;;;;10.86;100.00;101937.34;4881141;29;19928;-51
2021/10/26 07:35:27;;;;;;;;;;;;;;;10.91;100.00;101939.78;4864777;29;19935;-53
2021/10/26 07:37:54;;;;;;;;;;;;;;;10.86;100.00;101941.75;4881516;29;20323;-54
2021/10/26 07:40:21;;;;;;;;;;;;;;;10.89;100.00;101952.13;4878390;29;20438;-54
2021/10/26 07:42:48;;;;;;;;;;;;;;;10.87;100.00;101946.94;4863034;29;19928;-54
2021/10/26 07:45:14;;;;;;;;;;;;;;;10.94;100.00;101944.88;4864918;29;19935;-55
2021/10/26 07:47:41;;;;;;;;;;;;;;;11.00;100.00;101944.56;4880212;29;19966;-53
2021/10/26 07:50:08;;;;;;;;;;;;;;;10.93;100.00;101946.63;4879202;29;19931;-54
2021/10/26 07:52:35;;;;;;;;;;;;;;;10.94;100.00;101943.09;4878936;29;20391;-56
2021/10/26 07:55:03;;;;;;;;;;;;;;;11.01;100.00;101940.16;4878806;29;19939;-54
2021/10/26 07:57:30;;;;;;;;;;;;;;;11.03;100.00;101943.56;4878011;29;19928;-54
2021/10/26 07:59:57;;;;;;;;;;;;;;;11.04;100.00;101942.63;4881393;29;20392;-54
2021/10/26 08:02:24;;;;;;;;;;;;;;;11.09;100.00;101949.38;4864799;29;19990;-48
2021/10/26 08:04:51;;;;;;;;;;;;;;;11.12;100.00;101946.56;4878857;29;19932;-46
2021/10/26 08:07:18;;;;;;;;;;;;;;;11.13;100.00;101950.91;4862378;29;19935;-46
2021/10/26 08:09:45;;;;;;;;;;;;;;;11.14;100.00;101941.25;4877312;29;19927;-45
2021/10/26 08:12:12;;;;;;;;;;;;;;;11.18;100.00;101948.06;4879653;29;19931;-46
2021/10/26 08:14:40;;;;;;;;;;;;;;;11.28;100.00;101946.66;4861722;29;19934;-47
2021/10/26 08:17:06;;;;;;;;;;;;;;;11.32;100.00;101950.84;4878057;29;19935;-56
2021/10/26 08:19:34;;;;;;;;;;;;;;;11.31;100.00;101943.88;4861988;29;20478;-47
2021/10/26 08:22:01;;;;;;;;;;;;;;;11.45;100.00;101939.69;4878192;29;19935;-46
2021/10/26 08:24:31;;;;;;;;;;;;;;;11.39;100.00;101946.13;4861569;29;19951;-44
2021/10/26 08:26:58;;;;;;;;;;;;;;;11.38;100.00;101933.88;4878368;29;19928;-46
2021/10/26 08:29:41;;;;;;;;;;;;;;;11.50;100.00;101940.31;4860973;29;19989;-47
2021/10/26 08:37:13;;;;;;;;;;;;;;;11.62;100.00;101944.94;4879618;29;20273;-48
2021/10/26 08:39:41;;;;;;;;;;;;;;;11.74;99.61;101945.22;4861305;29;19938;-45
2021/10/26 08:42:13;;;;;;;;;;;;;;;11.79;99.15;101944.06;4877988;29;20410;-48
2021/10/26 08:44:40;;;;;;;;;;;;;;;11.78;99.74;101946.75;4860352;29;20340;-48
2021/10/26 08:47:07;;;;;;;;;;;;;;;11.70;99.88;101948.94;4861207;29;19934;-47
2021/10/26 08:49:34;;;;;;;;;;;;;;;11.82;99.72;101938.63;4861274;29;20427;-45
2021/10/26 08:52:04;;;;;;;;;;;;;;;11.95;98.79;101944.13;4861602;29;19928;-48
2021/10/26 08:54:31;;;;;;;;;;;;;;;11.97;99.06;101947.53;4877547;29;19939;-48
2021/10/26 08:56:59;;;;;;;;;;;;;;;12.03;98.86;101940.25;4861192;29;19928;-46
2021/10/26 08:59:25;;;;;;;;;;;;;;;12.05;98.78;101938.34;4877350;29;19964;-45
2021/10/26 09:01:52;;;;;;;;;;;;;;;12.15;98.67;101944.84;4880133;29;19966;-52
2021/10/26 09:04:19;;;;;;;;;;;;;;;12.11;97.82;101938.03;4863770;29;19928;-54
2021/10/26 09:06:52;;;;;;;;;;;;;;;12.14;96.86;101943.13;4863774;29;20468;-52
2021/10/26 09:09:20;;;;;;;;;;;;;;;12.15;95.55;101939.56;4878889;29;20391;-54
2021/10/26 09:16:39;;;;;;;;;;;;;;;12.20;95.48;101939.31;4879874;29;19934;-54
2021/10/26 09:17:21;;;;;;;;;;;;;;;12.24;95.77;101933.75;4877767;29;19928;-44
2021/10/26 09:19:48;;;;;;;;;;;;;;;12.44;94.01;101940.59;4860639;29;20019;-48
2021/10/26 09:22:15;;;;;;;;;;;;;;;12.40;94.46;101940.84;4877380;29;19967;-45
2021/10/26 09:24:55;;;;;;;;;;;;;;;12.51;94.04;101941.09;4860398;29;19928;-48
2021/10/26 09:27:22;;;;;;;;;;;;;;;12.57;94.38;101934.63;4876367;29;19932;-48
2021/10/26 09:29:49;;;;;;;;;;;;;;;12.59;93.48;101927.50;4875929;29;19932;-48
2021/10/26 09:32:17;;;;;;;;;;;;;;;12.74;93.26;101933.69;4860469;29;19944;-55
2021/10/26 09:34:46;;;;;;;;;;;;;;;12.67;93.07;101939.28;4877580;29;19932;-50
2021/10/26 09:37:14;;;;;;;;;;;;;;;12.94;92.77;101943.94;4879810;29;19936;-49
2021/10/26 09:39:52;;;;;;;;;;;;;;;13.05;92.60;101950.38;4878130;29;20375;-49
2021/10/26 09:42:19;;;;;;;;;;;;;;;13.01;92.73;101944.44;4879670;29;19928;-55
2021/10/26 09:44:47;;;;;;;;;;;;;;;13.06;91.08;101945.03;4881750;29;20320;-56
2021/10/26 09:47:19;;;;;;;;;;;;;;;13.07;91.51;101953.78;4878802;29;19927;-52
2021/10/26 09:49:51;;;;;;;;;;;;;;;12.97;91.89;101949.03;4875466;29;19932;-54
2021/10/26 09:52:21;;;;;;;;;;;;;;;13.02;91.28;101943.50;4876288;29;19928;-55
2021/10/26 09:54:50;;;;;;;;;;;;;;;13.13;90.68;101948.13;4881984;29;20493;-56
2021/10/26 09:57:17;;;;;;;;;;;;;;;13.18;90.39;101954.88;4858613;29;19927;-55
2021/10/26 09:59:45;;;;;;;;;;;;;;;13.25;90.07;101957.16;4873532;29;20410;-55
2021/10/26 10:02:14;;;;;;;;;;;;;;;13.20;89.54;101957.44;4880287;29;19970;-55
2021/10/26 10:04:59;;;;;;;;;;;;;;;13.28;89.61;101965.75;4877971;29;19938;-57
2021/10/26 10:07:31;;;;;;;;;;;;;;;13.37;88.67;101956.44;4876812;29;20296;-56
2021/10/26 10:10:04;;;;;;;;;;;;;;;13.56;88.54;101960.66;4890269;29;20345;-54
2021/10/26 10:12:31;;;;;;;;;;;;;;;13.59;88.20;101955.16;4875631;29;19971;-55
2021/10/26 10:14:58;;;;;;;;;;;;;;;13.57;86.97;101965.00;4891474;29;19987;-53
2021/10/26 10:17:28;;;;;;;;;;;;;;;13.58;88.26;101959.63;4876278;29;19932;-56
2021/10/26 10:19:58;;;;;;;;;;;;;;;13.79;86.78;101949.53;4876264;29;19991;-51
2021/10/26 10:22:26;;;;;;;;;;;;;;;13.58;87.79;101953.47;4890909;29;20284;-55
2021/10/26 10:25:00;;;;;;;;;;;;;;;13.78;87.00;101945.16;4862186;29;19932;-55
2021/10/26 10:27:27;;;;;;;;;;;;;;;13.83;88.05;101956.31;4878886;29;20299;-44
2021/10/26 10:29:55;;;;;;;;;;;;;;;13.84;87.25;101959.84;4878847;29;19935;-47
2021/10/26 10:32:22;;;;;;;;;;;;;;;13.84;87.21;101952.75;4862396;29;19956;-44
2021/10/26 10:34:49;;;;;;;;;;;;;;;13.84;87.07;101959.84;4878632;29;19928;-53
2021/10/26 10:37:16;;;;;;;;;;;;;;;13.95;87.11;101957.38;4877622;29;20012;-46
2021/10/26 10:39:45;;;;;;;;;;;;;;;14.01;86.89;101956.13;4877963;29;19948;-49
2021/10/26 10:42:18;;;;;;;;;;;;;;;14.06;85.72;101950.53;4880670;29;20439;-47
2021/10/26 10:44:45;;;;;;;;;;;;;;;14.14;85.54;101948.31;4879107;29;19942;-46
2021/10/26 10:47:30;;;;;;;;;;;;;;;13.94;86.30;101949.53;4879895;29;20316;-46
2021/10/26 10:49:57;;;;;;;;;;;;;;;14.06;85.45;101942.59;4879708;29;20316;-43
2021/10/26 10:52:28;;;;;;;;;;;;;;;13.97;86.33;101951.97;4895144;29;19979;-47
2021/10/26 10:54:56;;;;;;;;;;;;;;;14.02;85.67;101949.91;4882580;29;19938;-47
2021/10/26 10:57:24;;;;;;;;;;;;;;;14.17;85.62;101950.75;4879965;29;19938;-46
2021/10/26 10:59:51;;;;;;;;;;;;;;;14.22;85.85;101953.97;4878611;29;20326;-48
2021/10/26 11:02:19;;;;;;;;;;;;;;;14.27;85.96;101951.84;4894183;29;19928;-48
2021/10/26 11:04:46;;;;;;;;;;;;;;;14.21;85.00;101962.84;4879405;29;19936;-47
2021/10/26 11:07:13;;;;;;;;;;;;;;;14.22;84.84;101959.25;4879519;29;19936;-45
2021/10/26 11:09:40;;;;;;;;;;;;;;;14.08;85.55;101964.53;4863099;29;19938;-55
2021/10/26 11:12:10;;;;;;;;;;;;;;;14.18;85.04;101958.56;4881781;29;20333;-53
2021/10/26 11:14:47;;;;;;;;;;;;;;;14.37;84.79;101955.63;4882026;29;19928;-55
2021/10/26 11:17:36;;;;;;;;;;;;;;;14.33;84.54;101950.63;4882250;29;19928;-46
2021/10/26 11:20:04;;;;;;;;;;;;;;;14.12;85.85;101953.66;4881752;29;19928;-46
2021/10/26 11:22:45;;;;;;;;;;;;;;;14.06;85.77;101951.41;4879384;29;19931;-48
2021/10/26 11:25:20;;;;;;;;;;;;;;;14.16;85.61;101941.94;4879574;29;19935;-47
2021/10/26 11:27:47;;;;;;;;;;;;;;;14.06;86.20;101934.69;4877246;29;19931;-48
2021/10/26 11:30:28;;;;;;;;;;;;;;;14.09;86.21;101927.41;4879962;29;20337;-54
2021/10/26 11:33:14;;;;;;;;;;;;;;;14.19;85.90;101928.53;4879828;29;19983;-53
2021/10/26 11:35:45;;;;;;;;;;;;;;;14.17;88.51;101916.34;4878922;29;19931;-49
2021/10/26 11:38:13;;;;;;;;;;;;;;;14.34;90.51;101916.13;4879801;29;19928;-52
2021/10/26 11:40:52;;;;;;;;;;;;;;;14.37;89.53;101918.56;4881522;29;20284;-54
2021/10/26 11:43:19;;;;;;;;;;;;;;;14.51;89.06;101903.59;4893148;29;19928;-51
2021/10/26 11:46:02;;;;;;;;;;;;;;;14.48;87.23;101906.44;4877861;29;19932;-50
2021/10/26 11:48:44;;;;;;;;;;;;;;;14.48;85.89;101902.00;4878576;29;19931;-47
2021/10/26 11:51:14;;;;;;;;;;;;;;;14.56;86.34;101904.16;4878354;29;19928;-55
2021/10/26 11:53:40;;;;;;;;;;;;;;;14.74;86.20;101894.19;4880122;29;19932;-53
2021/10/26 11:56:27;;;;;;;;;;;;;;;14.86;85.92;101905.75;4881535;29;19928;-54
2021/10/26 11:59:08;;;;;;;;;;;;;;;14.86;84.29;101897.78;4881530;29;20422;-55
2021/10/26 12:01:46;;;;;;;;;;;;;;;15.06;84.58;101904.41;4881262;29;19934;-55
2021/10/26 12:04:13;;;;;;;;;;;;;;;15.06;83.23;101907.06;4878976;29;20404;-49
2021/10/26 12:06:40;;;;;;;;;;;;;;;15.27;83.15;101903.91;4878267;29;19954;-55
2021/10/26 12:09:11;;;;;;;;;;;;;;;15.31;83.16;101911.56;4881447;29;19928;-55
2021/10/26 12:11:39;;;;;;;;;;;;;;;15.29;82.82;101908.16;4893614;29;19928;-55
2021/10/26 12:14:22;;;;;;;;;;;;;;;15.40;82.42;101911.88;4892585;29;19927;-54
2021/10/26 12:17:07;;;;;;;;;;;;;;;15.07;81.43;101902.63;4879198;29;19934;-56
2021/10/26 12:19:34;;;;;;;;;;;;;;;14.92;82.01;101888.63;4880400;29;19936;-48
2021/10/26 12:22:01;;;;;;;;;;;;;;;15.06;82.11;101891.16;4878306;29;20384;-45
2021/10/26 12:24:29;;;;;;;;;;;;;;;15.10;81.42;101881.22;4878356;29;20408;-55
2021/10/26 12:26:57;;;;;;;;;;;;;;;15.03;82.34;101888.72;4876557;29;19931;-56
2021/10/26 12:29:29;;;;;;;;;;;;;;;15.10;80.67;101894.47;4878775;29;19931;-55
2021/10/26 12:31:56;;;;;;;;;;;;;;;15.04;81.40;101893.94;4877279;29;19928;-54
2021/10/26 12:34:23;;;;;;;;;;;;;;;15.12;80.51;101890.75;4878335;29;19928;-55
2021/10/26 12:36:50;;;;;;;;;;;;;;;15.51;79.28;101882.81;4878037;29;20403;-54
2021/10/26 12:39:23;;;;;;;;;;;;;;;15.51;78.92;101885.47;4879758;29;20016;-51
2021/10/26 12:41:50;;;;;;;;;;;;;;;15.57;78.74;101890.34;4877756;29;19932;-55
2021/10/26 12:44:20;;;;;;;;;;;;;;;15.42;79.63;101891.41;4892085;29;19949;-54